sensor_id;sensor_type;location;lat;lon;timestamp;temperature;humidity
25937;DHT22;13733;51.178;4.450;2024-02-04T00:00:44;11.30;99.90
25937;DHT22;13733;51.178;4.450;2024-02-04T00:03:10;11.40;99.90
25937;DHT22;13733;51.178;4.450;2024-02-04T00:05:36;11.40;99.90
25937;DHT22;13733;51.178;4.450;2024-02-04T00:08:01;11.40;99.90
25937;DHT22;13733;51.178;4.450;2024-02-04T00:10:28;11.40;99.90
25937;DHT22;13733;51.178;4.450;2024-02-04T00:12:54;11.40;99.90
25937;DHT22;13733;51.178;4.450;2024-02-04T00:15:20;11.40;99.90
25937;DHT22;13733;51.178;4.450;2024-02-04T00:17:45;11.40;99.90
25937;DHT22;13733;51.178;4.450;2024-02-04T00:20:11;11.40;99.90
25937;DHT22;13733;51.178;4.450;2024-02-04T00:22:38;11.50;99.90
25937;DHT22;13733;51.178;4.450;2024-02-04T00:25:05;11.40;99.90
25937;DHT22;13733;51.178;4.450;2024-02-04T00:27:34;11.40;99.90
25937;DHT22;13733;51.178;4.450;2024-02-04T00:30:00;11.50;99.90
25937;DHT22;13733;51.178;4.450;2024-02-04T00:32:26;11.50;99.90
25937;DHT22;13733;51.178;4.450;2024-02-04T00:34:53;11.50;99.90
25937;DHT22;13733;51.178;4.450;2024-02-04T00:37:21;11.40;99.90
25937;DHT22;13733;51.178;4.450;2024-02-04T00:39:47;11.40;99.90
25937;DHT22;13733;51.178;4.450;2024-02-04T00:42:13;11.30;99.90
25937;DHT22;13733;51.178;4.450;2024-02-04T00:44:39;11.50;99.90
25937;DHT22;13733;51.178;4.450;2024-02-04T00:47:05;11.40;99.90
25937;DHT22;13733;51.178;4.450;2024-02-04T00:49:30;11.40;99.90
25937;DHT22;13733;51.178;4.450;2024-02-04T00:51:56;11.40;99.90
25937;DHT22;13733;51.178;4.450;2024-02-04T00:54:22;11.40;99.90
25937;DHT22;13733;51.178;4.450;2024-02-04T00:56:49;11.50;99.90
25937;DHT22;13733;51.178;4.450;2024-02-04T00:59:15;11.50;99.90
25937;DHT22;13733;51.178;4.450;2024-02-04T01:01:40;11.40;99.90
25937;DHT22;13733;51.178;4.450;2024-02-04T01:04:07;11.40;99.90
25937;DHT22;13733;51.178;4.450;2024-02-04T01:06:33;11.50;99.90
25937;DHT22;13733;51.178;4.450;2024-02-04T01:09:01;11.50;99.90
25937;DHT22;13733;51.178;4.450;2024-02-04T01:11:27;11.40;99.90
25937;DHT22;13733;51.178;4.450;2024-02-04T01:13:55;11.50;99.90
25937;DHT22;13733;51.178;4.450;2024-02-04T01:16:20;11.50;99.90
25937;DHT22;13733;51.178;4.450;2024-02-04T01:18:46;11.50;99.90
25937;DHT22;13733;51.178;4.450;2024-02-04T01:21:12;11.40;99.90
25937;DHT22;13733;51.178;4.450;2024-02-04T01:23:38;11.50;99.90
25937;DHT22;13733;51.178;4.450;2024-02-04T01:26:04;11.50;99.90
25937;DHT22;13733;51.178;4.450;2024-02-04T01:28:30;11.50;99.90
25937;DHT22;13733;51.178;4.450;2024-02-04T01:30:56;11.50;99.90
25937;DHT22;13733;51.178;4.450;2024-02-04T01:33:22;11.60;99.90
25937;DHT22;13733;51.178;4.450;2024-02-04T01:35:48;11.60;99.90
25937;DHT22;13733;51.178;4.450;2024-02-04T01:38:14;11.60;99.90
25937;DHT22;13733;51.178;4.450;2024-02-04T01:40:41;11.60;99.90
25937;DHT22;13733;51.178;4.450;2024-02-04T01:43:07;11.60;99.90
25937;DHT22;13733;51.178;4.450;2024-02-04T01:45:33;11.60;99.90
25937;DHT22;13733;51.178;4.450;2024-02-04T01:47:59;11.60;99.90
25937;DHT22;13733;51.178;4.450;2024-02-04T01:50:24;11.60;99.90
25937;DHT22;13733;51.178;4.450;2024-02-04T01:52:52;11.70;99.90
25937;DHT22;13733;51.178;4.450;2024-02-04T01:55:19;11.70;99.90
25937;DHT22;13733;51.178;4.450;2024-02-04T01:57:45;11.70;99.90
25937;DHT22;13733;51.178;4.450;2024-02-04T02:00:13;11.70;99.90
25937;DHT22;13733;51.178;4.450;2024-02-04T02:02:40;11.70;99.90
25937;DHT22;13733;51.178;4.450;2024-02-04T02:05:07;11.70;99.90
25937;DHT22;13733;51.178;4.450;2024-02-04T02:07:34;11.80;99.90
25937;DHT22;13733;51.178;4.450;2024-02-04T02:10:00;11.70;99.90
25937;DHT22;13733;51.178;4.450;2024-02-04T02:12:31;11.70;99.90
25937;DHT22;13733;51.178;4.450;2024-02-04T02:15:13;11.80;99.90
25937;DHT22;13733;51.178;4.450;2024-02-04T02:26:18;11.60;99.90
25937;DHT22;13733;51.178;4.450;2024-02-04T02:28:45;11.60;99.90
25937;DHT22;13733;51.178;4.450;2024-02-04T02:31:10;11.60;99.90
25937;DHT22;13733;51.178;4.450;2024-02-04T02:33:36;11.70;99.90
25937;DHT22;13733;51.178;4.450;2024-02-04T02:36:06;11.80;99.90
25937;DHT22;13733;51.178;4.450;2024-02-04T02:38:35;11.80;99.90
25937;DHT22;13733;51.178;4.450;2024-02-04T02:41:06;11.90;99.90
25937;DHT22;13733;51.178;4.450;2024-02-04T02:43:34;12.00;99.90
25937;DHT22;13733;51.178;4.450;2024-02-04T02:46:01;11.80;99.90
25937;DHT22;13733;51.178;4.450;2024-02-04T02:48:27;11.80;99.90
25937;DHT22;13733;51.178;4.450;2024-02-04T02:50:54;11.80;99.90
25937;DHT22;13733;51.178;4.450;2024-02-04T02:53:20;11.80;99.90
25937;DHT22;13733;51.178;4.450;2024-02-04T02:55:46;11.80;99.90
25937;DHT22;13733;51.178;4.450;2024-02-04T02:58:13;11.80;99.90
25937;DHT22;13733;51.178;4.450;2024-02-04T03:00:39;11.70;99.90
25937;DHT22;13733;51.178;4.450;2024-02-04T03:03:05;11.60;99.90
25937;DHT22;13733;51.178;4.450;2024-02-04T03:05:31;11.60;99.90
25937;DHT22;13733;51.178;4.450;2024-02-04T03:07:58;11.70;99.90
25937;DHT22;13733;51.178;4.450;2024-02-04T03:10:24;11.80;99.90
25937;DHT22;13733;51.178;4.450;2024-02-04T03:12:50;11.80;99.90
25937;DHT22;13733;51.178;4.450;2024-02-04T03:15:16;11.80;99.90
25937;DHT22;13733;51.178;4.450;2024-02-04T03:17:45;11.70;99.90
25937;DHT22;13733;51.178;4.450;2024-02-04T03:20:11;11.80;99.90
25937;DHT22;13733;51.178;4.450;2024-02-04T03:22:37;11.90;99.90
25937;DHT22;13733;51.178;4.450;2024-02-04T03:25:03;11.80;99.90
25937;DHT22;13733;51.178;4.450;2024-02-04T03:27:29;11.70;99.90
25937;DHT22;13733;51.178;4.450;2024-02-04T03:29:54;11.80;99.90
25937;DHT22;13733;51.178;4.450;2024-02-04T03:32:21;11.80;99.90
25937;DHT22;13733;51.178;4.450;2024-02-04T03:34:47;11.90;99.90
25937;DHT22;13733;51.178;4.450;2024-02-04T03:37:14;11.80;99.90
25937;DHT22;13733;51.178;4.450;2024-02-04T03:39:40;11.80;99.90
25937;DHT22;13733;51.178;4.450;2024-02-04T03:42:06;11.90;99.90
25937;DHT22;13733;51.178;4.450;2024-02-04T03:44:31;12.00;99.90
25937;DHT22;13733;51.178;4.450;2024-02-04T03:46:57;12.00;99.90
25937;DHT22;13733;51.178;4.450;2024-02-04T03:49:23;12.00;99.90
25937;DHT22;13733;51.178;4.450;2024-02-04T03:51:51;12.00;99.90
25937;DHT22;13733;51.178;4.450;2024-02-04T03:54:18;11.90;99.90
25937;DHT22;13733;51.178;4.450;2024-02-04T03:56:45;12.00;99.90
25937;DHT22;13733;51.178;4.450;2024-02-04T03:59:11;12.00;99.90
25937;DHT22;13733;51.178;4.450;2024-02-04T04:01:37;12.00;99.90
25937;DHT22;13733;51.178;4.450;2024-02-04T04:04:03;12.00;99.90
25937;DHT22;13733;51.178;4.450;2024-02-04T04:06:29;11.90;99.90
25937;DHT22;13733;51.178;4.450;2024-02-04T04:08:54;11.80;99.90
25937;DHT22;13733;51.178;4.450;2024-02-04T04:11:20;11.70;99.90
25937;DHT22;13733;51.178;4.450;2024-02-04T04:13:46;11.80;99.90
25937;DHT22;13733;51.178;4.450;2024-02-04T04:16:12;11.80;99.90
25937;DHT22;13733;51.178;4.450;2024-02-04T04:18:38;11.80;99.90
25937;DHT22;13733;51.178;4.450;2024-02-04T04:21:04;11.70;99.90
25937;DHT22;13733;51.178;4.450;2024-02-04T04:23:29;11.80;99.90
25937;DHT22;13733;51.178;4.450;2024-02-04T04:25:55;11.60;99.90
25937;DHT22;13733;51.178;4.450;2024-02-04T04:28:21;11.60;99.90
25937;DHT22;13733;51.178;4.450;2024-02-04T04:30:47;11.50;99.90
25937;DHT22;13733;51.178;4.450;2024-02-04T04:33:13;11.60;99.90
25937;DHT22;13733;51.178;4.450;2024-02-04T04:35:38;11.60;99.90
25937;DHT22;13733;51.178;4.450;2024-02-04T04:38:04;11.60;99.90
25937;DHT22;13733;51.178;4.450;2024-02-04T04:40:30;11.50;99.90
25937;DHT22;13733;51.178;4.450;2024-02-04T04:42:57;11.50;99.90
25937;DHT22;13733;51.178;4.450;2024-02-04T04:45:23;11.60;99.90
25937;DHT22;13733;51.178;4.450;2024-02-04T04:47:48;11.70;99.90
25937;DHT22;13733;51.178;4.450;2024-02-04T04:50:15;11.70;99.90
25937;DHT22;13733;51.178;4.450;2024-02-04T04:52:41;11.60;99.90
25937;DHT22;13733;51.178;4.450;2024-02-04T04:55:07;11.60;99.90
25937;DHT22;13733;51.178;4.450;2024-02-04T04:57:32;11.60;99.90
25937;DHT22;13733;51.178;4.450;2024-02-04T04:59:58;11.50;99.90
25937;DHT22;13733;51.178;4.450;2024-02-04T05:02:27;11.60;99.90
25937;DHT22;13733;51.178;4.450;2024-02-04T05:04:52;11.70;99.90
25937;DHT22;13733;51.178;4.450;2024-02-04T05:07:18;11.50;99.90
25937;DHT22;13733;51.178;4.450;2024-02-04T05:09:44;11.50;99.90
25937;DHT22;13733;51.178;4.450;2024-02-04T05:12:11;11.60;99.90
25937;DHT22;13733;51.178;4.450;2024-02-04T05:14:36;11.60;99.90
25937;DHT22;13733;51.178;4.450;2024-02-04T05:17:04;11.50;99.90
25937;DHT22;13733;51.178;4.450;2024-02-04T05:19:29;11.50;99.90
25937;DHT22;13733;51.178;4.450;2024-02-04T05:21:55;11.50;99.90
25937;DHT22;13733;51.178;4.450;2024-02-04T05:24:21;11.50;99.90
25937;DHT22;13733;51.178;4.450;2024-02-04T05:26:46;11.50;99.90
25937;DHT22;13733;51.178;4.450;2024-02-04T05:29:12;11.60;99.90
25937;DHT22;13733;51.178;4.450;2024-02-04T05:31:42;11.60;99.90
25937;DHT22;13733;51.178;4.450;2024-02-04T05:34:08;11.60;99.90
25937;DHT22;13733;51.178;4.450;2024-02-04T05:36:34;11.60;99.90
25937;DHT22;13733;51.178;4.450;2024-02-04T05:39:11;11.60;99.90
25937;DHT22;13733;51.178;4.450;2024-02-04T05:41:37;11.60;99.90
25937;DHT22;13733;51.178;4.450;2024-02-04T05:44:03;11.60;99.90
25937;DHT22;13733;51.178;4.450;2024-02-04T05:46:29;11.50;99.90
25937;DHT22;13733;51.178;4.450;2024-02-04T05:48:55;11.60;99.90
25937;DHT22;13733;51.178;4.450;2024-02-04T05:51:22;11.70;99.90
25937;DHT22;13733;51.178;4.450;2024-02-04T05:53:48;11.70;99.90
25937;DHT22;13733;51.178;4.450;2024-02-04T05:56:13;11.80;99.90
25937;DHT22;13733;51.178;4.450;2024-02-04T05:58:40;11.70;99.90
25937;DHT22;13733;51.178;4.450;2024-02-04T06:01:07;11.80;99.90
25937;DHT22;13733;51.178;4.450;2024-02-04T06:03:33;11.60;99.90
25937;DHT22;13733;51.178;4.450;2024-02-04T06:05:59;11.60;99.90
25937;DHT22;13733;51.178;4.450;2024-02-04T06:08:24;11.60;99.90
25937;DHT22;13733;51.178;4.450;2024-02-04T06:10:50;11.50;99.90
25937;DHT22;13733;51.178;4.450;2024-02-04T06:13:16;11.50;99.90
25937;DHT22;13733;51.178;4.450;2024-02-04T06:15:42;11.40;99.90
25937;DHT22;13733;51.178;4.450;2024-02-04T06:18:07;11.40;99.90
25937;DHT22;13733;51.178;4.450;2024-02-04T06:20:33;11.40;99.90
25937;DHT22;13733;51.178;4.450;2024-02-04T06:22:59;11.40;99.90
25937;DHT22;13733;51.178;4.450;2024-02-04T06:25:26;11.40;99.90
25937;DHT22;13733;51.178;4.450;2024-02-04T06:27:52;11.50;99.90
25937;DHT22;13733;51.178;4.450;2024-02-04T06:30:18;11.50;99.90
25937;DHT22;13733;51.178;4.450;2024-02-04T06:32:43;11.60;99.90
25937;DHT22;13733;51.178;4.450;2024-02-04T06:35:09;11.60;99.90
25937;DHT22;13733;51.178;4.450;2024-02-04T06:37:35;11.50;99.90
25937;DHT22;13733;51.178;4.450;2024-02-04T06:40:01;11.60;99.90
25937;DHT22;13733;51.178;4.450;2024-02-04T06:42:28;11.40;99.90
25937;DHT22;13733;51.178;4.450;2024-02-04T06:44:53;11.30;99.90
25937;DHT22;13733;51.178;4.450;2024-02-04T06:47:20;11.40;99.90
25937;DHT22;13733;51.178;4.450;2024-02-04T06:49:46;11.40;99.90
25937;DHT22;13733;51.178;4.450;2024-02-04T06:52:12;11.30;99.90
25937;DHT22;13733;51.178;4.450;2024-02-04T06:54:37;11.30;99.90
25937;DHT22;13733;51.178;4.450;2024-02-04T06:57:03;11.40;99.90
25937;DHT22;13733;51.178;4.450;2024-02-04T06:59:29;11.40;99.90
25937;DHT22;13733;51.178;4.450;2024-02-04T07:01:55;11.50;99.90
25937;DHT22;13733;51.178;4.450;2024-02-04T07:04:21;11.40;99.90
25937;DHT22;13733;51.178;4.450;2024-02-04T07:06:47;11.30;99.90
25937;DHT22;13733;51.178;4.450;2024-02-04T07:09:13;11.40;99.90
25937;DHT22;13733;51.178;4.450;2024-02-04T07:11:39;11.30;99.90
25937;DHT22;13733;51.178;4.450;2024-02-04T07:14:05;11.30;99.90
25937;DHT22;13733;51.178;4.450;2024-02-04T07:16:32;11.30;99.90
25937;DHT22;13733;51.178;4.450;2024-02-04T07:18:58;11.40;99.90
25937;DHT22;13733;51.178;4.450;2024-02-04T07:21:24;11.40;99.90
25937;DHT22;13733;51.178;4.450;2024-02-04T07:23:50;11.30;99.90
25937;DHT22;13733;51.178;4.450;2024-02-04T07:26:16;11.40;99.90
25937;DHT22;13733;51.178;4.450;2024-02-04T07:28:41;11.40;99.90
25937;DHT22;13733;51.178;4.450;2024-02-04T07:31:08;11.30;99.90
25937;DHT22;13733;51.178;4.450;2024-02-04T07:33:33;11.40;99.90
25937;DHT22;13733;51.178;4.450;2024-02-04T07:36:01;11.50;99.90
25937;DHT22;13733;51.178;4.450;2024-02-04T07:38:27;11.50;99.90
25937;DHT22;13733;51.178;4.450;2024-02-04T07:40:53;11.50;99.90
25937;DHT22;13733;51.178;4.450;2024-02-04T07:43:21;11.50;99.90
25937;DHT22;13733;51.178;4.450;2024-02-04T07:45:46;11.50;99.90
25937;DHT22;13733;51.178;4.450;2024-02-04T07:48:12;11.50;99.90
25937;DHT22;13733;51.178;4.450;2024-02-04T07:50:38;11.40;99.90
25937;DHT22;13733;51.178;4.450;2024-02-04T07:53:04;11.50;99.90
25937;DHT22;13733;51.178;4.450;2024-02-04T07:55:29;11.50;99.90
25937;DHT22;13733;51.178;4.450;2024-02-04T07:57:55;11.50;99.90
25937;DHT22;13733;51.178;4.450;2024-02-04T08:00:21;11.50;99.90
25937;DHT22;13733;51.178;4.450;2024-02-04T08:02:47;11.50;99.90
25937;DHT22;13733;51.178;4.450;2024-02-04T08:05:13;11.50;99.90
25937;DHT22;13733;51.178;4.450;2024-02-04T08:07:39;11.50;99.90
25937;DHT22;13733;51.178;4.450;2024-02-04T08:10:05;11.50;99.90
25937;DHT22;13733;51.178;4.450;2024-02-04T08:12:31;11.60;99.90
25937;DHT22;13733;51.178;4.450;2024-02-04T08:14:57;11.60;99.90
25937;DHT22;13733;51.178;4.450;2024-02-04T08:17:22;11.60;99.90
25937;DHT22;13733;51.178;4.450;2024-02-04T08:19:48;11.60;99.90
25937;DHT22;13733;51.178;4.450;2024-02-04T08:22:14;11.70;99.90
25937;DHT22;13733;51.178;4.450;2024-02-04T08:24:41;11.70;99.90
25937;DHT22;13733;51.178;4.450;2024-02-04T08:27:07;11.70;99.90
25937;DHT22;13733;51.178;4.450;2024-02-04T08:29:33;11.80;99.90
25937;DHT22;13733;51.178;4.450;2024-02-04T08:31:59;11.70;99.90
25937;DHT22;13733;51.178;4.450;2024-02-04T08:34:25;11.70;99.90
25937;DHT22;13733;51.178;4.450;2024-02-04T08:36:53;11.80;99.90
25937;DHT22;13733;51.178;4.450;2024-02-04T08:39:19;11.90;99.90
25937;DHT22;13733;51.178;4.450;2024-02-04T08:41:47;11.90;99.90
25937;DHT22;13733;51.178;4.450;2024-02-04T08:44:13;11.90;99.90
25937;DHT22;13733;51.178;4.450;2024-02-04T08:46:38;12.00;99.90
25937;DHT22;13733;51.178;4.450;2024-02-04T08:49:04;11.90;99.90
25937;DHT22;13733;51.178;4.450;2024-02-04T08:51:30;11.90;99.90
25937;DHT22;13733;51.178;4.450;2024-02-04T08:53:56;12.00;99.90
25937;DHT22;13733;51.178;4.450;2024-02-04T08:56:22;12.20;99.90
25937;DHT22;13733;51.178;4.450;2024-02-04T08:58:47;12.30;99.90
25937;DHT22;13733;51.178;4.450;2024-02-04T09:01:13;12.20;99.90
25937;DHT22;13733;51.178;4.450;2024-02-04T09:03:40;12.30;99.90
25937;DHT22;13733;51.178;4.450;2024-02-04T09:06:05;12.30;99.90
25937;DHT22;13733;51.178;4.450;2024-02-04T09:08:32;12.40;99.90
25937;DHT22;13733;51.178;4.450;2024-02-04T09:10:58;12.40;99.90
25937;DHT22;13733;51.178;4.450;2024-02-04T09:13:24;12.30;99.90
25937;DHT22;13733;51.178;4.450;2024-02-04T09:15:50;12.30;99.90
25937;DHT22;13733;51.178;4.450;2024-02-04T09:18:16;12.30;99.90
25937;DHT22;13733;51.178;4.450;2024-02-04T09:20:42;12.30;99.90
25937;DHT22;13733;51.178;4.450;2024-02-04T09:23:08;12.30;99.90
25937;DHT22;13733;51.178;4.450;2024-02-04T09:25:34;12.10;99.90
25937;DHT22;13733;51.178;4.450;2024-02-04T09:28:00;12.10;99.90
25937;DHT22;13733;51.178;4.450;2024-02-04T09:30:25;12.20;99.90
25937;DHT22;13733;51.178;4.450;2024-02-04T09:32:51;12.10;99.90
25937;DHT22;13733;51.178;4.450;2024-02-04T09:35:17;12.20;99.90
25937;DHT22;13733;51.178;4.450;2024-02-04T09:37:43;12.20;99.90
25937;DHT22;13733;51.178;4.450;2024-02-04T09:40:09;12.10;99.90
25937;DHT22;13733;51.178;4.450;2024-02-04T09:42:35;12.10;99.90
25937;DHT22;13733;51.178;4.450;2024-02-04T09:45:01;12.10;99.90
25937;DHT22;13733;51.178;4.450;2024-02-04T09:47:27;12.30;99.90
25937;DHT22;13733;51.178;4.450;2024-02-04T09:49:54;12.40;99.90
25937;DHT22;13733;51.178;4.450;2024-02-04T09:52:28;12.30;99.90
25937;DHT22;13733;51.178;4.450;2024-02-04T09:55:00;12.40;99.90
25937;DHT22;13733;51.178;4.450;2024-02-04T09:57:26;12.30;99.90
25937;DHT22;13733;51.178;4.450;2024-02-04T09:59:54;12.30;99.90
25937;DHT22;13733;51.178;4.450;2024-02-04T10:02:20;12.30;99.90
25937;DHT22;13733;51.178;4.450;2024-02-04T10:04:46;12.20;99.90
25937;DHT22;13733;51.178;4.450;2024-02-04T10:07:13;12.20;99.90
25937;DHT22;13733;51.178;4.450;2024-02-04T10:09:40;12.40;99.90
25937;DHT22;13733;51.178;4.450;2024-02-04T10:12:06;12.50;99.90
25937;DHT22;13733;51.178;4.450;2024-02-04T10:14:34;12.60;99.90
25937;DHT22;13733;51.178;4.450;2024-02-04T10:17:00;12.60;99.90
25937;DHT22;13733;51.178;4.450;2024-02-04T10:19:25;12.70;99.90
25937;DHT22;13733;51.178;4.450;2024-02-04T10:21:59;12.90;99.60
25937;DHT22;13733;51.178;4.450;2024-02-04T10:24:25;12.90;98.60
25937;DHT22;13733;51.178;4.450;2024-02-04T10:26:51;12.90;98.60
25937;DHT22;13733;51.178;4.450;2024-02-04T10:29:18;12.90;98.10
25937;DHT22;13733;51.178;4.450;2024-02-04T10:31:44;12.90;99.60
25937;DHT22;13733;51.178;4.450;2024-02-04T10:34:10;13.10;98.40
25937;DHT22;13733;51.178;4.450;2024-02-04T10:36:36;13.10;97.60
25937;DHT22;13733;51.178;4.450;2024-02-04T10:39:04;13.10;97.80
25937;DHT22;13733;51.178;4.450;2024-02-04T10:41:31;13.20;96.70
25937;DHT22;13733;51.178;4.450;2024-02-04T10:44:02;13.30;95.30
25937;DHT22;13733;51.178;4.450;2024-02-04T10:46:30;13.20;95.50
25937;DHT22;13733;51.178;4.450;2024-02-04T10:49:00;13.10;96.30
25937;DHT22;13733;51.178;4.450;2024-02-04T10:51:31;13.20;95.80
25937;DHT22;13733;51.178;4.450;2024-02-04T10:53:59;13.30;94.90
25937;DHT22;13733;51.178;4.450;2024-02-04T10:56:36;13.40;94.10
25937;DHT22;13733;51.178;4.450;2024-02-04T10:59:03;13.50;93.60
25937;DHT22;13733;51.178;4.450;2024-02-04T11:01:29;13.40;93.90
25937;DHT22;13733;51.178;4.450;2024-02-04T11:03:56;13.40;94.50
25937;DHT22;13733;51.178;4.450;2024-02-04T11:06:23;13.40;94.50
25937;DHT22;13733;51.178;4.450;2024-02-04T11:08:51;13.40;94.30
25937;DHT22;13733;51.178;4.450;2024-02-04T11:11:18;13.40;93.40
25937;DHT22;13733;51.178;4.450;2024-02-04T11:13:48;13.50;94.40
25937;DHT22;13733;51.178;4.450;2024-02-04T11:22:17;13.50;93.90
25937;DHT22;13733;51.178;4.450;2024-02-04T11:25:03;13.70;93.20
25937;DHT22;13733;51.178;4.450;2024-02-04T11:27:34;13.70;91.70
25937;DHT22;13733;51.178;4.450;2024-02-04T11:30:01;13.70;91.70
25937;DHT22;13733;51.178;4.450;2024-02-04T11:32:28;13.90;90.10
25937;DHT22;13733;51.178;4.450;2024-02-04T11:34:54;13.80;88.00
25937;DHT22;13733;51.178;4.450;2024-02-04T11:37:26;13.60;90.80
25937;DHT22;13733;51.178;4.450;2024-02-04T11:39:54;13.70;90.80
25937;DHT22;13733;51.178;4.450;2024-02-04T11:42:24;13.60;91.00
25937;DHT22;13733;51.178;4.450;2024-02-04T11:44:50;13.80;90.70
25937;DHT22;13733;51.178;4.450;2024-02-04T11:47:26;13.70;89.10
25937;DHT22;13733;51.178;4.450;2024-02-04T11:49:57;13.80;89.20
25937;DHT22;13733;51.178;4.450;2024-02-04T11:52:23;13.80;89.00
25937;DHT22;13733;51.178;4.450;2024-02-04T11:54:49;13.80;89.20
25937;DHT22;13733;51.178;4.450;2024-02-04T11:57:16;13.70;90.50
25937;DHT22;13733;51.178;4.450;2024-02-04T11:59:42;13.80;91.20
25937;DHT22;13733;51.178;4.450;2024-02-04T12:02:09;14.10;83.80
25937;DHT22;13733;51.178;4.450;2024-02-04T12:04:35;14.00;80.70
25937;DHT22;13733;51.178;4.450;2024-02-04T12:07:03;14.00;83.40
25937;DHT22;13733;51.178;4.450;2024-02-04T12:09:29;14.10;80.20
25937;DHT22;13733;51.178;4.450;2024-02-04T12:11:55;14.10;81.90
25937;DHT22;13733;51.178;4.450;2024-02-04T12:14:21;14.00;82.80
25937;DHT22;13733;51.178;4.450;2024-02-04T12:16:48;14.10;82.10
25937;DHT22;13733;51.178;4.450;2024-02-04T12:19:14;13.90;84.60
25937;DHT22;13733;51.178;4.450;2024-02-04T12:21:41;13.90;85.80
25937;DHT22;13733;51.178;4.450;2024-02-04T12:24:07;13.90;85.30
25937;DHT22;13733;51.178;4.450;2024-02-04T12:26:33;14.00;85.80
25937;DHT22;13733;51.178;4.450;2024-02-04T12:28:59;14.10;83.90
25937;DHT22;13733;51.178;4.450;2024-02-04T12:31:26;14.00;81.40
25937;DHT22;13733;51.178;4.450;2024-02-04T12:33:59;14.20;81.90
25937;DHT22;13733;51.178;4.450;2024-02-04T12:36:30;14.30;72.40
25937;DHT22;13733;51.178;4.450;2024-02-04T12:38:58;14.00;76.80
25937;DHT22;13733;51.178;4.450;2024-02-04T12:41:25;14.00;82.10
25937;DHT22;13733;51.178;4.450;2024-02-04T12:43:55;14.00;80.50
25937;DHT22;13733;51.178;4.450;2024-02-04T12:46:22;14.20;79.50
25937;DHT22;13733;51.178;4.450;2024-02-04T12:48:55;14.00;80.20
25937;DHT22;13733;51.178;4.450;2024-02-04T12:51:25;14.10;78.90
25937;DHT22;13733;51.178;4.450;2024-02-04T12:54:11;13.80;87.60
25937;DHT22;13733;51.178;4.450;2024-02-04T12:59:09;13.90;83.80
25937;DHT22;13733;51.178;4.450;2024-02-04T13:01:37;13.90;85.90
25937;DHT22;13733;51.178;4.450;2024-02-04T13:04:03;13.80;87.50
25937;DHT22;13733;51.178;4.450;2024-02-04T13:06:31;13.70;89.70
25937;DHT22;13733;51.178;4.450;2024-02-04T13:08:58;13.70;89.50
25937;DHT22;13733;51.178;4.450;2024-02-04T13:11:25;13.80;90.40
25937;DHT22;13733;51.178;4.450;2024-02-04T13:13:52;13.80;88.20
25937;DHT22;13733;51.178;4.450;2024-02-04T13:16:19;13.70;90.10
25937;DHT22;13733;51.178;4.450;2024-02-04T13:18:53;13.80;90.10
25937;DHT22;13733;51.178;4.450;2024-02-04T13:21:20;13.80;90.30
25937;DHT22;13733;51.178;4.450;2024-02-04T13:23:49;13.80;90.20
25937;DHT22;13733;51.178;4.450;2024-02-04T13:26:16;13.70;91.30
25937;DHT22;13733;51.178;4.450;2024-02-04T13:28:43;13.70;90.90
25937;DHT22;13733;51.178;4.450;2024-02-04T13:31:09;13.70;91.50
25937;DHT22;13733;51.178;4.450;2024-02-04T13:33:37;13.70;90.80
25937;DHT22;13733;51.178;4.450;2024-02-04T13:36:05;13.70;91.90
25937;DHT22;13733;51.178;4.450;2024-02-04T13:38:31;13.50;92.90
25937;DHT22;13733;51.178;4.450;2024-02-04T13:40:58;13.60;92.40
25937;DHT22;13733;51.178;4.450;2024-02-04T13:43:24;13.50;93.00
25937;DHT22;13733;51.178;4.450;2024-02-04T13:45:50;13.60;90.60
25937;DHT22;13733;51.178;4.450;2024-02-04T13:48:16;13.50;93.20
25937;DHT22;13733;51.178;4.450;2024-02-04T13:50:44;13.40;94.60
25937;DHT22;13733;51.178;4.450;2024-02-04T13:53:11;13.40;95.20
25937;DHT22;13733;51.178;4.450;2024-02-04T13:55:37;13.40;95.30
25937;DHT22;13733;51.178;4.450;2024-02-04T13:58:03;13.50;94.70
25937;DHT22;13733;51.178;4.450;2024-02-04T14:00:29;13.70;92.50
25937;DHT22;13733;51.178;4.450;2024-02-04T14:02:55;13.70;91.30
25937;DHT22;13733;51.178;4.450;2024-02-04T14:05:20;13.70;91.20
25937;DHT22;13733;51.178;4.450;2024-02-04T14:07:46;14.00;91.10
25937;DHT22;13733;51.178;4.450;2024-02-04T14:10:12;14.30;83.60
25937;DHT22;13733;51.178;4.450;2024-02-04T14:12:41;14.70;71.00
25937;DHT22;13733;51.178;4.450;2024-02-04T14:15:11;14.70;67.50
25937;DHT22;13733;51.178;4.450;2024-02-04T14:17:37;14.30;76.00
25937;DHT22;13733;51.178;4.450;2024-02-04T14:20:05;14.10;80.50
25937;DHT22;13733;51.178;4.450;2024-02-04T14:22:31;14.20;77.20
25937;DHT22;13733;51.178;4.450;2024-02-04T14:24:57;14.20;77.00
25937;DHT22;13733;51.178;4.450;2024-02-04T14:27:24;14.00;81.10
25937;DHT22;13733;51.178;4.450;2024-02-04T14:29:50;13.90;83.20
25937;DHT22;13733;51.178;4.450;2024-02-04T14:32:15;13.90;84.00
25937;DHT22;13733;51.178;4.450;2024-02-04T14:34:41;13.90;83.70
25937;DHT22;13733;51.178;4.450;2024-02-04T14:37:08;14.00;79.60
25937;DHT22;13733;51.178;4.450;2024-02-04T14:39:34;14.00;79.30
25937;DHT22;13733;51.178;4.450;2024-02-04T14:42:00;14.20;73.90
25937;DHT22;13733;51.178;4.450;2024-02-04T14:44:26;14.30;69.80
25937;DHT22;13733;51.178;4.450;2024-02-04T14:46:52;14.10;71.10
25937;DHT22;13733;51.178;4.450;2024-02-04T14:49:18;14.00;74.90
25937;DHT22;13733;51.178;4.450;2024-02-04T14:51:45;14.00;79.70
25937;DHT22;13733;51.178;4.450;2024-02-04T14:54:11;13.70;85.60
25937;DHT22;13733;51.178;4.450;2024-02-04T14:56:40;13.60;84.40
25937;DHT22;13733;51.178;4.450;2024-02-04T14:59:10;13.60;85.20
25937;DHT22;13733;51.178;4.450;2024-02-04T15:01:38;13.50;87.60
25937;DHT22;13733;51.178;4.450;2024-02-04T15:04:04;13.60;87.20
25937;DHT22;13733;51.178;4.450;2024-02-04T15:06:30;13.60;85.80
25937;DHT22;13733;51.178;4.450;2024-02-04T15:08:58;13.50;88.10
25937;DHT22;13733;51.178;4.450;2024-02-04T15:11:27;13.40;89.30
25937;DHT22;13733;51.178;4.450;2024-02-04T15:13:56;13.40;88.70
25937;DHT22;13733;51.178;4.450;2024-02-04T15:16:23;13.40;90.20
25937;DHT22;13733;51.178;4.450;2024-02-04T15:18:49;13.50;87.60
25937;DHT22;13733;51.178;4.450;2024-02-04T15:21:15;13.50;85.30
25937;DHT22;13733;51.178;4.450;2024-02-04T15:23:41;13.30;87.90
25937;DHT22;13733;51.178;4.450;2024-02-04T15:26:13;13.30;89.70
25937;DHT22;13733;51.178;4.450;2024-02-04T15:28:41;13.30;88.90
25937;DHT22;13733;51.178;4.450;2024-02-04T15:31:07;13.30;90.20
25937;DHT22;13733;51.178;4.450;2024-02-04T15:33:34;13.40;87.10
25937;DHT22;13733;51.178;4.450;2024-02-04T15:36:01;13.60;81.60
25937;DHT22;13733;51.178;4.450;2024-02-04T15:38:28;13.40;83.10
25937;DHT22;13733;51.178;4.450;2024-02-04T15:40:54;13.10;89.30
25937;DHT22;13733;51.178;4.450;2024-02-04T15:43:20;13.10;91.70